VA7RO Weather Reports


Display with metric or nautical units.
time (UTC)temp
F
wind
direction
speed
MPH
gust
MPH
rain 1hr
in
rain 24hr
in
rain mn
in
humidity
%
barometer
mb
20190723004537 70 32 2.0 4.0 0.00 0.00 0.00 62 1013.2
20190723003031 69 54 3.0 6.0 0.00 0.00 0.00 66 1013.1
20190723001527 69 38 4.0 5.0 0.00 0.00 0.00 64 1013.2
20190723000041 68 43 3.0 7.0 0.00 0.00 0.00 67 1013.2
20190722234536 67 58 6.0 8.0 0.00 0.00 0.00 66 1013.1
20190722233033 69 49 6.0 9.0 0.00 0.00 0.00 63 1013.2
20190722231528 72 67 5.0 8.0 0.00 0.00 0.00 60 1013.3
20190722230044 71 42 4.0 6.0 0.00 0.00 0.00 63 1013.3
20190722224540 69 12 6.0 7.0 0.00 0.00 0.00 63 1013.5
20190722223035 73 56 2.0 4.0 0.00 0.00 0.00 61 1013.4
20190722221531 70 325 2.0 3.0 0.00 0.00 0.00 65 1013.5
20190722220044 65 49 5.0 9.0 0.00 0.00 0.00 72 1013.4
20190722214538 64 53 6.0 11.0 0.00 0.00 0.00 73 1013.5
20190722213034 63 30 8.0 11.0 0.00 0.00 0.00 74 1013.5
20190722211530 62 71 9.0 13.0 0.00 0.00 0.00 76 1013.4
20190722210049 63 49 8.0 12.0 0.00 0.00 0.00 75 1013.4
20190722204537 62 77 8.0 11.0 0.00 0.00 0.00 76 1013.4
20190722203048 63 82 10.0 14.0 0.00 0.00 0.00 74 1013.5
20190722201536 64 79 9.0 10.0 0.00 0.00 0.00 72 1013.4
20190722200042 65 88 6.0 9.0 0.00 0.00 0.00 73 1013.6
20190722194546 63 61 7.0 9.0 0.00 0.00 0.00 76 1013.7
20190722193034 62 74 8.0 12.0 0.00 0.00 0.00 77 1013.8
20190722191541 62 104 8.0 14.0 0.00 0.00 0.00 78 1013.8
20190722190050 62 92 10.0 13.0 0.00 0.00 0.00 75 1013.9
20190722184537 63 109 7.0 10.0 0.00 0.00 0.00 75 1013.8
20190722183044 63 100 7.0 9.0 0.00 0.00 0.00 75 1013.7
20190722181535 64 75 7.0 8.0 0.00 0.00 0.00 75 1013.7
20190722180043 63 95 5.0 8.0 0.00 0.00 0.00 74 1013.7
20190722174552 61 80 5.0 8.0 0.00 0.00 0.00 78 1013.5
20190722173039 61 78 6.0 8.0 0.00 0.00 0.00 77 1013.5
20190722171552 64 64 5.0 7.0 0.00 0.00 0.00 73 1013.2
20190722170041 63 67 3.0 6.0 0.00 0.00 0.00 75 1013.3
20190722164530 61 101 4.0 5.0 0.00 0.00 0.00 79 1013.3
20190722163042 60 114 4.0 5.0 0.00 0.00 0.00 80 1013.2
20190722161551 61 101 5.0 7.0 0.00 0.00 0.00 79 1013.2
20190722160039 60 102 4.0 6.0 0.00 0.00 0.00 82 1013.0
20190722154544 59 111 3.0 5.0 0.00 0.00 0.00 82 1013.0
20190722153033 58 97 4.0 5.0 0.00 0.00 0.00 83 1012.8
20190722151543 58 98 5.0 7.0 0.00 0.00 0.00 83 1012.8
20190722150051 58 97 4.0 5.0 0.00 0.00 0.00 84 1012.5
20190722144540 59 116 4.0 5.0 0.00 0.00 0.00 82 1012.4
20190722143049 59 79 2.0 3.0 0.00 0.00 0.00 82 1012.3
20190722140039 58 98 1.0 2.0 0.00 0.00 0.00 84 1012.1
20190722134543 57 96 2.0 3.0 0.00 0.00 0.00 84 1012.0
20190722133046 57 96 2.0 3.0 0.00 0.00 0.00 84 1011.9
20190722131530 57 103 2.0 3.0 0.00 0.00 0.00 83 1011.8
20190722130035 57 104 1.0 3.0 0.00 0.00 0.00 83 1011.6
20190722124525 55 98 0.0 2.0 0.00 0.00 0.00 85 1011.4
20190722123036 55 98 2.0 3.0 0.00 0.00 0.00 84 1011.4
20190722121526 57 98 3.0 3.0 0.00 0.00 0.00 82 1011.4
20190722120044 57 98 2.0 3.0 0.00 0.00 0.00 81 1011.3
20190722114539 56 98 0.0 1.0 0.00 0.00 0.00 83 1011.1
20190722113032 57 98 2.0 3.0 0.00 0.00 0.00 81 1011.2
20190722111529 58 83 0.0 1.0 0.00 0.00 0.00 80 1011.1
20190722110025 57 83 0.0 2.0 0.00 0.00 0.00 80 1011.1
20190722104541 58 82 2.0 3.0 0.00 0.00 0.00 78 1011.0
20190722103038 59 82 1.0 3.0 0.00 0.00 0.00 78 1011.1
20190722101534 59 91 1.0 2.0 0.00 0.00 0.00 80 1011.1
20190722100029 59 91 0.0 2.0 0.00 0.00 0.00 78 1011.1
20190722094524 61 159 1.0 2.0 0.00 0.00 0.00 77 1011.0
20190722093140 61 163 1.0 2.0 0.00 0.00 0.00 75 1010.9
20190722091735 62 163 2.0 2.0 0.00 0.00 0.00 72 1010.8
20190722090051 62 163 0.0 2.0 0.00 0.00 0.00 70 1010.8
20190722084552 62 159 1.0 2.0 0.00 0.00 0.00 72 1010.7
20190722083035 62 125 1.0 3.0 0.00 0.00 0.00 71 1010.7
20190722081537 62 124 2.0 3.0 0.00 0.00 0.00 70 1010.8
20190722080040 62 143 1.0 2.0 0.00 0.00 0.00 73 1010.6
20190722074542 62 69 2.0 3.0 0.00 0.00 0.00 74 1010.5
20190722073040 64 29 0.0 2.0 0.00 0.00 0.00 70 1010.4
20190722070112 64 29 0.0 2.0 0.00 0.00 0.00 67 1010.2
20190722064544 64 29 1.0 2.0 0.00 0.00 0.00 69 1010.1
20190722063049 64 29 1.0 3.0 0.00 0.00 0.00 69 1010.2
20190722061532 63 298 2.0 4.0 0.00 0.00 0.00 73 1010.2
20190722060038 64 282 2.0 3.0 0.00 0.00 0.00 69 1010.1
20190722054542 64 78 1.0 2.0 0.00 0.00 0.00 67 1010.3
20190722053044 63 78 0.0 3.0 0.00 0.00 0.00 67 1010.3
20190722051548 64 55 2.0 4.0 0.00 0.00 0.00 66 1010.2
20190722050035 68 5 1.0 3.0 0.00 0.00 0.00 64 1010.1
20190722044538 67 304 2.0 3.0 0.00 0.00 0.00 68 1010.0
20190722043045 70 308 2.0 3.0 0.00 0.00 0.00 59 1010.0
20190722041547 71 73 0.0 2.0 0.00 0.00 0.00 54 1009.8
20190722040034 71 73 2.0 5.0 0.00 0.00 0.00 51 1009.7
20190722034539 72 114 1.0 2.0 0.00 0.00 0.00 50 1009.7
20190722033045 71 78 2.0 3.0 0.00 0.00 0.00 53 1009.6
20190722031550 68 71 3.0 4.0 0.00 0.00 0.00 59 1009.6
20190722030033 74 78 2.0 3.0 0.00 0.00 0.00 51 1009.7
20190722024541 76 104 2.0 3.0 0.00 0.00 0.00 50 1009.7
20190722023045 75 104 2.0 3.0 0.00 0.00 0.00 47 1009.8
20190722021532 74 95 2.0 4.0 0.00 0.00 0.00 50 1010.0
20190722020036 74 74 2.0 3.0 0.00 0.00 0.00 54 1010.0
20190722014539 74 88 2.0 5.0 0.00 0.00 0.00 54 1010.2
20190722013044 74 77 3.0 5.0 0.00 0.00 0.00 54 1010.3
20190722011530 73 67 4.0 5.0 0.00 0.00 0.00 56 1010.4
20190722010035 75 84 4.0 5.0 0.00 0.00 0.00 53 1010.6